sensor_id;sensor_type;location;lat;lon;timestamp;P1;durP1;ratioP1;P2;durP2;ratioP2
52982;SDS011;48698;45.736;13.926;2022-10-15T00:00:33;43.47;;;39.08;;
52982;SDS011;48698;45.736;13.926;2022-10-15T00:05:37;43.47;;;39.08;;
52982;SDS011;48698;45.736;13.926;2022-10-15T00:10:44;44.72;;;38.30;;
52982;SDS011;48698;45.736;13.926;2022-10-15T00:15:48;45.58;;;40.63;;
52982;SDS011;48698;45.736;13.926;2022-10-15T00:21:04;44.28;;;39.47;;
52982;SDS011;48698;45.736;13.926;2022-10-15T00:26:11;47.90;;;42.72;;
52982;SDS011;48698;45.736;13.926;2022-10-15T00:31:16;48.88;;;43.72;;
52982;SDS011;48698;45.736;13.926;2022-10-15T00:36:27;51.00;;;45.47;;
52982;SDS011;48698;45.736;13.926;2022-10-15T00:41:39;51.80;;;45.15;;
52982;SDS011;48698;45.736;13.926;2022-10-15T00:46:44;47.08;;;42.08;;
52982;SDS011;48698;45.736;13.926;2022-10-15T00:51:53;46.03;;;41.17;;
52982;SDS011;48698;45.736;13.926;2022-10-15T00:57:03;46.30;;;41.30;;
52982;SDS011;48698;45.736;13.926;2022-10-15T01:02:12;47.72;;;42.63;;
52982;SDS011;48698;45.736;13.926;2022-10-15T01:07:16;46.70;;;41.60;;
52982;SDS011;48698;45.736;13.926;2022-10-15T01:12:33;51.53;;;43.10;;
52982;SDS011;48698;45.736;13.926;2022-10-15T01:29:12;49.33;;;44.03;;
52982;SDS011;48698;45.736;13.926;2022-10-15T01:34:45;49.95;;;43.30;;
52982;SDS011;48698;45.736;13.926;2022-10-15T01:39:58;49.65;;;44.20;;
52982;SDS011;48698;45.736;13.926;2022-10-15T01:45:10;50.78;;;45.28;;
52982;SDS011;48698;45.736;13.926;2022-10-15T01:50:19;51.08;;;45.65;;
52982;SDS011;48698;45.736;13.926;2022-10-15T01:55:25;51.65;;;46.10;;
52982;SDS011;48698;45.736;13.926;2022-10-15T02:00:29;51.60;;;45.55;;
52982;SDS011;48698;45.736;13.926;2022-10-15T02:05:44;56.50;;;47.67;;
52982;SDS011;48698;45.736;13.926;2022-10-15T02:11:02;52.67;;;46.97;;
52982;SDS011;48698;45.736;13.926;2022-10-15T02:16:20;51.90;;;46.17;;
52982;SDS011;48698;45.736;13.926;2022-10-15T02:21:34;51.42;;;45.80;;
52982;SDS011;48698;45.736;13.926;2022-10-15T02:26:45;50.80;;;45.15;;
52982;SDS011;48698;45.736;13.926;2022-10-15T02:36:57;50.08;;;44.63;;
52982;SDS011;48698;45.736;13.926;2022-10-15T02:42:03;52.55;;;46.30;;
52982;SDS011;48698;45.736;13.926;2022-10-15T02:47:08;53.40;;;47.67;;
52982;SDS011;48698;45.736;13.926;2022-10-15T02:52:12;53.17;;;47.42;;
52982;SDS011;48698;45.736;13.926;2022-10-15T02:57:16;48.05;;;42.90;;
52982;SDS011;48698;45.736;13.926;2022-10-15T03:02:20;51.35;;;45.72;;
52982;SDS011;48698;45.736;13.926;2022-10-15T03:07:24;53.45;;;45.60;;
52982;SDS011;48698;45.736;13.926;2022-10-15T03:12:35;51.00;;;44.05;;
52982;SDS011;48698;45.736;13.926;2022-10-15T03:17:39;50.90;;;45.38;;
52982;SDS011;48698;45.736;13.926;2022-10-15T03:22:42;54.00;;;46.67;;
52982;SDS011;48698;45.736;13.926;2022-10-15T03:27:46;52.75;;;47.22;;
52982;SDS011;48698;45.736;13.926;2022-10-15T03:32:50;53.35;;;46.78;;
52982;SDS011;48698;45.736;13.926;2022-10-15T03:37:54;59.88;;;50.03;;
52982;SDS011;48698;45.736;13.926;2022-10-15T03:42:58;54.30;;;48.38;;
52982;SDS011;48698;45.736;13.926;2022-10-15T03:48:02;54.60;;;48.80;;
52982;SDS011;48698;45.736;13.926;2022-10-15T03:53:06;57.28;;;49.95;;
52982;SDS011;48698;45.736;13.926;2022-10-15T03:58:09;55.33;;;48.65;;
52982;SDS011;48698;45.736;13.926;2022-10-15T04:03:13;56.90;;;48.70;;
52982;SDS011;48698;45.736;13.926;2022-10-15T04:08:17;57.17;;;48.60;;
52982;SDS011;48698;45.736;13.926;2022-10-15T04:13:21;55.95;;;48.78;;
52982;SDS011;48698;45.736;13.926;2022-10-15T04:18:25;52.78;;;46.95;;
52982;SDS011;48698;45.736;13.926;2022-10-15T04:23:28;54.92;;;48.72;;
52982;SDS011;48698;45.736;13.926;2022-10-15T04:28:32;55.05;;;49.28;;
52982;SDS011;48698;45.736;13.926;2022-10-15T04:33:37;57.90;;;51.63;;
52982;SDS011;48698;45.736;13.926;2022-10-15T04:38:40;55.78;;;48.65;;
52982;SDS011;48698;45.736;13.926;2022-10-15T04:43:44;56.40;;;48.50;;
52982;SDS011;48698;45.736;13.926;2022-10-15T04:48:57;54.20;;;48.40;;
52982;SDS011;48698;45.736;13.926;2022-10-15T04:54:01;57.67;;;48.55;;
52982;SDS011;48698;45.736;13.926;2022-10-15T04:59:07;52.97;;;47.13;;
52982;SDS011;48698;45.736;13.926;2022-10-15T05:04:11;54.15;;;47.33;;
52982;SDS011;48698;45.736;13.926;2022-10-15T05:09:16;53.85;;;47.05;;
52982;SDS011;48698;45.736;13.926;2022-10-15T05:14:19;54.60;;;47.63;;
52982;SDS011;48698;45.736;13.926;2022-10-15T05:19:24;57.53;;;48.87;;
52982;SDS011;48698;45.736;13.926;2022-10-15T05:24:27;57.58;;;49.47;;
52982;SDS011;48698;45.736;13.926;2022-10-15T05:29:31;56.10;;;49.97;;
52982;SDS011;48698;45.736;13.926;2022-10-15T05:34:34;55.42;;;48.17;;
52982;SDS011;48698;45.736;13.926;2022-10-15T05:39:38;56.65;;;50.42;;
52982;SDS011;48698;45.736;13.926;2022-10-15T05:44:41;54.13;;;48.25;;
52982;SDS011;48698;45.736;13.926;2022-10-15T05:49:46;52.97;;;46.80;;
52982;SDS011;48698;45.736;13.926;2022-10-15T05:54:59;52.05;;;46.45;;
52982;SDS011;48698;45.736;13.926;2022-10-15T06:00:04;55.80;;;45.60;;
52982;SDS011;48698;45.736;13.926;2022-10-15T06:05:08;52.45;;;46.47;;
52982;SDS011;48698;45.736;13.926;2022-10-15T06:10:16;54.67;;;46.17;;
52982;SDS011;48698;45.736;13.926;2022-10-15T06:15:20;52.95;;;47.20;;
52982;SDS011;48698;45.736;13.926;2022-10-15T06:20:24;51.53;;;45.92;;
52982;SDS011;48698;45.736;13.926;2022-10-15T06:25:27;57.78;;;48.90;;
52982;SDS011;48698;45.736;13.926;2022-10-15T06:30:31;51.80;;;46.28;;
52982;SDS011;48698;45.736;13.926;2022-10-15T06:35:35;53.40;;;47.67;;
52982;SDS011;48698;45.736;13.926;2022-10-15T06:40:39;54.80;;;48.90;;
52982;SDS011;48698;45.736;13.926;2022-10-15T06:45:42;50.42;;;45.03;;
52982;SDS011;48698;45.736;13.926;2022-10-15T06:50:47;96.55;;;79.65;;
52982;SDS011;48698;45.736;13.926;2022-10-15T06:55:50;77.50;;;63.40;;
52982;SDS011;48698;45.736;13.926;2022-10-15T07:01:01;63.20;;;50.38;;
52982;SDS011;48698;45.736;13.926;2022-10-15T07:06:06;50.88;;;44.95;;
52982;SDS011;48698;45.736;13.926;2022-10-15T07:11:11;51.00;;;45.50;;
52982;SDS011;48698;45.736;13.926;2022-10-15T07:16:15;55.53;;;47.17;;
52982;SDS011;48698;45.736;13.926;2022-10-15T07:21:18;49.80;;;44.33;;
52982;SDS011;48698;45.736;13.926;2022-10-15T07:26:23;48.70;;;43.53;;
52982;SDS011;48698;45.736;13.926;2022-10-15T07:31:27;46.60;;;41.63;;
52982;SDS011;48698;45.736;13.926;2022-10-15T07:36:30;120.45;;;85.53;;
52982;SDS011;48698;45.736;13.926;2022-10-15T07:41:34;49.90;;;44.63;;
52982;SDS011;48698;45.736;13.926;2022-10-15T07:46:38;47.72;;;42.72;;
52982;SDS011;48698;45.736;13.926;2022-10-15T07:51:41;46.90;;;41.78;;
52982;SDS011;48698;45.736;13.926;2022-10-15T07:56:45;44.22;;;39.72;;
52982;SDS011;48698;45.736;13.926;2022-10-15T08:01:49;45.63;;;40.80;;
52982;SDS011;48698;45.736;13.926;2022-10-15T08:06:53;43.75;;;39.15;;
52982;SDS011;48698;45.736;13.926;2022-10-15T08:11:57;63.87;;;57.47;;
52982;SDS011;48698;45.736;13.926;2022-10-15T08:17:04;53.85;;;47.67;;
52982;SDS011;48698;45.736;13.926;2022-10-15T08:22:09;45.15;;;40.45;;
52982;SDS011;48698;45.736;13.926;2022-10-15T08:27:14;42.38;;;38.08;;
52982;SDS011;48698;45.736;13.926;2022-10-15T08:32:18;43.23;;;38.80;;
52982;SDS011;48698;45.736;13.926;2022-10-15T08:37:22;52.85;;;47.30;;
52982;SDS011;48698;45.736;13.926;2022-10-15T08:42:35;50.17;;;44.83;;
52982;SDS011;48698;45.736;13.926;2022-10-15T08:47:46;38.70;;;33.67;;
52982;SDS011;48698;45.736;13.926;2022-10-15T08:52:53;65.88;;;58.65;;
52982;SDS011;48698;45.736;13.926;2022-10-15T08:58:05;43.67;;;35.47;;
52982;SDS011;48698;45.736;13.926;2022-10-15T09:08:39;34.38;;;30.38;;
52982;SDS011;48698;45.736;13.926;2022-10-15T09:13:53;35.13;;;31.33;;
52982;SDS011;48698;45.736;13.926;2022-10-15T09:18:59;31.77;;;28.38;;
52982;SDS011;48698;45.736;13.926;2022-10-15T09:24:10;38.20;;;32.95;;
52982;SDS011;48698;45.736;13.926;2022-10-15T09:34:47;37.75;;;33.35;;
52982;SDS011;48698;45.736;13.926;2022-10-15T09:40:24;35.47;;;31.63;;
52982;SDS011;48698;45.736;13.926;2022-10-15T09:45:30;34.58;;;30.98;;
52982;SDS011;48698;45.736;13.926;2022-10-15T09:50:36;35.33;;;31.63;;
52982;SDS011;48698;45.736;13.926;2022-10-15T09:55:48;36.33;;;32.63;;
52982;SDS011;48698;45.736;13.926;2022-10-15T10:00:57;35.85;;;32.00;;
52982;SDS011;48698;45.736;13.926;2022-10-15T10:06:10;32.70;;;29.40;;
52982;SDS011;48698;45.736;13.926;2022-10-15T10:11:16;35.88;;;31.98;;
52982;SDS011;48698;45.736;13.926;2022-10-15T10:16:20;36.05;;;31.92;;
52982;SDS011;48698;45.736;13.926;2022-10-15T10:21:35;36.50;;;32.70;;
52982;SDS011;48698;45.736;13.926;2022-10-15T10:26:41;37.60;;;31.38;;
52982;SDS011;48698;45.736;13.926;2022-10-15T10:31:44;36.63;;;32.70;;
52982;SDS011;48698;45.736;13.926;2022-10-15T10:36:52;35.97;;;32.17;;
52982;SDS011;48698;45.736;13.926;2022-10-15T10:57:34;34.17;;;30.47;;
52982;SDS011;48698;45.736;13.926;2022-10-15T11:02:44;35.65;;;31.42;;
52982;SDS011;48698;45.736;13.926;2022-10-15T11:08:06;33.80;;;30.30;;
52982;SDS011;48698;45.736;13.926;2022-10-15T11:46:07;30.67;;;26.58;;
52982;SDS011;48698;45.736;13.926;2022-10-15T11:56:47;27.05;;;24.38;;
52982;SDS011;48698;45.736;13.926;2022-10-15T12:07:32;29.35;;;26.08;;
52982;SDS011;48698;45.736;13.926;2022-10-15T12:17:56;27.60;;;24.88;;
52982;SDS011;48698;45.736;13.926;2022-10-15T12:23:20;29.13;;;25.90;;
52982;SDS011;48698;45.736;13.926;2022-10-15T12:28:46;29.15;;;26.08;;
52982;SDS011;48698;45.736;13.926;2022-10-15T12:33:51;31.38;;;24.23;;
52982;SDS011;48698;45.736;13.926;2022-10-15T12:39:00;26.85;;;24.10;;
52982;SDS011;48698;45.736;13.926;2022-10-15T12:44:32;31.70;;;25.63;;
52982;SDS011;48698;45.736;13.926;2022-10-15T12:54:44;28.27;;;25.40;;
52982;SDS011;48698;45.736;13.926;2022-10-15T12:59:54;27.13;;;24.17;;
52982;SDS011;48698;45.736;13.926;2022-10-15T13:05:00;26.85;;;23.95;;
52982;SDS011;48698;45.736;13.926;2022-10-15T13:10:15;27.15;;;24.30;;
52982;SDS011;48698;45.736;13.926;2022-10-15T13:15:24;27.88;;;23.67;;
52982;SDS011;48698;45.736;13.926;2022-10-15T13:20:32;26.33;;;23.65;;
52982;SDS011;48698;45.736;13.926;2022-10-15T13:25:39;27.75;;;24.80;;
52982;SDS011;48698;45.736;13.926;2022-10-15T13:30:47;28.37;;;25.50;;
52982;SDS011;48698;45.736;13.926;2022-10-15T13:35:52;28.15;;;25.17;;
52982;SDS011;48698;45.736;13.926;2022-10-15T13:40:56;29.50;;;26.50;;
52982;SDS011;48698;45.736;13.926;2022-10-15T13:45:59;30.77;;;27.67;;
52982;SDS011;48698;45.736;13.926;2022-10-15T13:51:04;28.90;;;25.90;;
52982;SDS011;48698;45.736;13.926;2022-10-15T13:56:20;29.75;;;26.75;;
52982;SDS011;48698;45.736;13.926;2022-10-15T14:01:26;27.65;;;24.85;;
52982;SDS011;48698;45.736;13.926;2022-10-15T14:06:31;28.10;;;25.17;;
52982;SDS011;48698;45.736;13.926;2022-10-15T14:11:36;26.77;;;23.95;;
52982;SDS011;48698;45.736;13.926;2022-10-15T14:16:44;28.08;;;25.23;;
52982;SDS011;48698;45.736;13.926;2022-10-15T14:21:50;29.20;;;26.20;;
52982;SDS011;48698;45.736;13.926;2022-10-15T14:32:15;30.45;;;27.35;;
52982;SDS011;48698;45.736;13.926;2022-10-15T14:42:38;30.08;;;27.15;;
52982;SDS011;48698;45.736;13.926;2022-10-15T14:47:43;35.03;;;31.30;;
52982;SDS011;48698;45.736;13.926;2022-10-15T14:52:50;33.97;;;29.83;;
52982;SDS011;48698;45.736;13.926;2022-10-15T14:57:56;36.42;;;31.08;;
52982;SDS011;48698;45.736;13.926;2022-10-15T15:03:04;37.00;;;33.00;;
52982;SDS011;48698;45.736;13.926;2022-10-15T15:08:09;38.45;;;34.50;;
52982;SDS011;48698;45.736;13.926;2022-10-15T15:13:14;37.20;;;33.20;;
52982;SDS011;48698;45.736;13.926;2022-10-15T15:18:22;36.97;;;32.97;;
52982;SDS011;48698;45.736;13.926;2022-10-15T15:39:55;40.47;;;34.72;;
52982;SDS011;48698;45.736;13.926;2022-10-15T15:44:58;38.73;;;34.70;;
52982;SDS011;48698;45.736;13.926;2022-10-15T15:50:02;39.03;;;34.93;;
52982;SDS011;48698;45.736;13.926;2022-10-15T15:55:06;38.67;;;33.03;;
52982;SDS011;48698;45.736;13.926;2022-10-15T16:00:11;42.80;;;37.50;;
52982;SDS011;48698;45.736;13.926;2022-10-15T16:05:15;42.17;;;36.78;;
52982;SDS011;48698;45.736;13.926;2022-10-15T16:10:19;44.90;;;37.13;;
52982;SDS011;48698;45.736;13.926;2022-10-15T16:15:23;42.05;;;37.20;;
52982;SDS011;48698;45.736;13.926;2022-10-15T16:20:26;44.87;;;39.33;;
52982;SDS011;48698;45.736;13.926;2022-10-15T16:25:30;51.90;;;41.23;;
52982;SDS011;48698;45.736;13.926;2022-10-15T16:30:34;45.70;;;40.70;;
52982;SDS011;48698;45.736;13.926;2022-10-15T16:35:38;45.63;;;39.72;;
52982;SDS011;48698;45.736;13.926;2022-10-15T16:40:44;43.97;;;39.07;;
52982;SDS011;48698;45.736;13.926;2022-10-15T16:56:17;55.92;;;44.15;;
52982;SDS011;48698;45.736;13.926;2022-10-15T17:01:27;79.95;;;70.03;;
